createdAt,value
2019-04-14T00:01:35.436Z,100929.59
2019-04-14T00:04:16.331Z,100928.03
2019-04-14T00:06:46.296Z,100930.02
2019-04-14T00:09:18.639Z,100926.95
2019-04-14T00:11:48.747Z,100923.95
2019-04-14T00:14:18.577Z,100923.95
2019-04-14T00:16:48.965Z,100921.48
2019-04-14T00:19:18.131Z,100919.44
2019-04-14T00:21:47.718Z,100916.02
2019-04-14T00:24:16.814Z,100909.08
2019-04-14T00:26:46.716Z,100909.59
2019-04-14T00:29:17.295Z,100903.70
2019-04-14T00:31:47.456Z,100902.02
2019-04-14T00:34:35.995Z,100906.45
2019-04-14T00:37:14.133Z,100901.37
2019-04-14T00:39:46.832Z,100898.37
2019-04-14T00:42:34.200Z,100892.84
2019-04-14T00:45:33.941Z,100893.38
2019-04-14T00:48:03.399Z,100890.95
2019-04-14T00:50:28.019Z,100896.91
2019-04-14T00:52:57.129Z,100893.34
2019-04-14T00:55:27.129Z,100887.95
2019-04-14T00:57:57.263Z,100893.12
2019-04-14T01:00:27.537Z,100894.86
2019-04-14T01:02:57.975Z,100891.44
2019-04-14T01:05:28.371Z,100890.30
2019-04-14T01:07:58.768Z,100889.80
2019-04-14T01:10:28.255Z,100892.89
2019-04-14T01:12:58.187Z,100893.38
2019-04-14T01:15:27.300Z,100891.92
2019-04-14T01:17:57.176Z,100897.52
2019-04-14T01:20:27.432Z,100888.30
2019-04-14T01:22:57.462Z,100894.37
2019-04-14T01:25:28.121Z,100888.11
2019-04-14T01:27:58.198Z,100893.12
2019-04-14T01:30:28.328Z,100897.35
2019-04-14T01:32:58.869Z,100896.92
2019-04-14T01:35:29.195Z,100904.04
2019-04-14T01:37:59.396Z,100897.36
2019-04-14T01:40:29.875Z,100898.28
2019-04-14T01:42:59.506Z,100895.12
2019-04-14T01:45:29.609Z,100892.20
2019-04-14T01:48:00.018Z,100894.74
2019-04-14T01:50:38.845Z,100898.22
2019-04-14T01:53:25.125Z,100891.55
2019-04-14T01:56:01.310Z,100891.48
2019-04-14T01:58:40.378Z,100884.76
2019-04-14T02:01:15.361Z,100890.78
2019-04-14T02:03:45.549Z,100893.38
2019-04-14T02:06:15.689Z,100889.20
2019-04-14T02:08:45.872Z,100889.55
2019-04-14T02:11:15.846Z,100896.81
2019-04-14T02:13:46.469Z,100892.57
2019-04-14T02:16:25.829Z,100897.41
2019-04-14T02:18:48.060Z,100901.69
2019-04-14T02:21:17.978Z,100904.80
2019-04-14T02:23:49.789Z,100905.55
2019-04-14T02:26:22.007Z,100905.94
2019-04-14T02:28:59.250Z,100904.25
2019-04-14T02:31:53.645Z,100903.98
2019-04-14T02:34:41.618Z,100904.31
2019-04-14T02:37:04.826Z,100900.28
2019-04-14T02:39:47.822Z,100905.77
2019-04-14T02:42:17.479Z,100903.55
2019-04-14T02:44:44.030Z,100892.09
2019-04-14T02:49:51.063Z,100902.95
2019-04-14T02:52:34.930Z,100906.80
2019-04-14T02:55:04.246Z,100907.94
2019-04-14T02:57:37.596Z,100908.64
2019-04-14T03:00:13.311Z,100902.84
2019-04-14T03:05:21.815Z,100900.17
2019-04-14T03:07:54.058Z,100899.84
2019-04-14T03:10:31.860Z,100898.16
2019-04-14T03:13:20.784Z,100902.34
2019-04-14T03:15:41.673Z,100903.31
2019-04-14T03:24:12.798Z,100895.39
2019-04-14T03:26:51.648Z,100895.39
2019-04-14T03:29:29.502Z,100892.16
2019-04-14T03:32:15.265Z,100890.46
2019-04-14T03:39:33.467Z,100892.12
2019-04-14T03:42:00.483Z,100890.39
2019-04-14T03:52:03.711Z,100897.91
2019-04-14T03:54:27.358Z,100905.03
2019-04-14T03:56:53.669Z,100904.45
2019-04-14T03:59:24.048Z,100892.17
2019-04-14T04:01:54.474Z,100896.94
2019-04-14T04:04:24.831Z,100896.94
2019-04-14T04:06:55.412Z,100890.48
2019-04-14T04:09:32.105Z,100889.27
2019-04-14T04:12:03.140Z,100889.27
2019-04-14T04:14:33.373Z,100889.42
2019-04-14T04:17:21.505Z,100889.42
2019-04-14T04:19:55.733Z,100892.41
2019-04-14T04:22:47.660Z,100908.42
2019-04-14T04:25:31.224Z,100908.42
2019-04-14T04:28:12.414Z,100913.52
2019-04-14T04:30:47.015Z,100913.52
2019-04-14T04:33:37.889Z,100915.82
2019-04-14T04:36:15.983Z,100922.30
2019-04-14T04:39:06.432Z,100923.28
2019-04-14T04:41:36.439Z,100925.38
2019-04-14T04:44:09.319Z,100925.38
2019-04-14T04:46:39.457Z,100930.34
2019-04-14T04:49:15.101Z,100930.48
2019-04-14T04:51:40.035Z,100926.39
2019-04-14T04:54:10.227Z,100936.55
2019-04-14T04:56:40.533Z,100934.58
2019-04-14T04:59:09.850Z,100933.72
2019-04-14T05:01:38.941Z,100933.58
2019-04-14T05:04:09.044Z,100926.38
2019-04-14T05:06:57.177Z,100939.31
2019-04-14T05:09:44.835Z,100946.63
2019-04-14T05:12:29.118Z,100949.94
2019-04-14T05:15:33.346Z,100949.94
2019-04-14T05:18:04.849Z,100947.23
2019-04-14T05:20:35.523Z,100946.84
2019-04-14T05:23:05.892Z,100951.45
2019-04-14T05:25:36.667Z,100951.45
2019-04-14T05:28:06.931Z,100947.02
2019-04-14T05:30:37.114Z,100959.64
2019-04-14T05:33:07.468Z,100957.14
2019-04-14T05:35:40.108Z,100961.73
2019-04-14T05:38:10.517Z,100962.32
2019-04-14T05:40:40.822Z,100965.77
2019-04-14T05:43:11.099Z,100963.45
2019-04-14T05:45:41.601Z,100962.20
2019-04-14T05:48:11.816Z,100961.06
2019-04-14T05:50:42.165Z,100958.11
2019-04-14T05:53:11.317Z,100971.45
2019-04-14T05:55:41.624Z,100965.14
2019-04-14T05:58:12.094Z,100970.13
2019-04-14T06:00:44.596Z,100978.30
2019-04-14T06:03:14.568Z,100975.28
2019-04-14T06:05:44.934Z,100979.25
2019-04-14T06:08:14.112Z,100982.08
2019-04-14T06:10:43.624Z,100981.16
2019-04-14T06:13:12.796Z,100982.23
2019-04-14T06:15:41.928Z,100987.89
2019-04-14T06:18:12.336Z,100988.70
2019-04-14T06:20:41.490Z,100992.13
2019-04-14T06:23:10.623Z,100986.63
2019-04-14T06:25:40.078Z,100989.92
2019-04-14T06:28:09.181Z,100993.27
2019-04-14T06:31:00.243Z,100992.34
2019-04-14T06:33:44.704Z,100991.03
2019-04-14T06:36:28.517Z,100989.37
2019-04-14T06:39:06.964Z,100990.06
2019-04-14T06:41:36.238Z,100988.93
2019-04-14T06:44:09.141Z,100984.12
2019-04-14T06:46:38.325Z,100984.16
2019-04-14T06:49:07.477Z,100983.02
2019-04-14T06:51:36.914Z,100977.20
2019-04-14T06:54:06.113Z,100979.23
2019-04-14T06:56:35.738Z,100980.56
2019-04-14T06:59:07.421Z,100984.64
2019-04-14T07:01:38.908Z,100982.95
2019-04-14T07:04:09.421Z,100981.22
2019-04-14T07:06:38.953Z,100986.16
2019-04-14T07:09:08.536Z,100982.19
2019-04-14T07:11:38.656Z,100984.84
2019-04-14T07:14:08.123Z,100986.35
2019-04-14T07:16:37.350Z,100987.95
2019-04-14T07:19:08.164Z,100994.30
2019-04-14T07:21:38.927Z,100988.94
2019-04-14T07:24:11.060Z,100997.59
2019-04-14T07:26:41.117Z,100999.63
2019-04-14T07:29:11.507Z,100998.48
2019-04-14T07:32:02.405Z,100994.97
2019-04-14T07:34:47.818Z,100999.08
2019-04-14T07:37:54.152Z,100997.75
2019-04-14T07:40:48.817Z,100992.67
2019-04-14T07:43:38.591Z,100993.83
2019-04-14T07:46:24.306Z,100992.53
2019-04-14T07:49:21.951Z,100986.58
2019-04-14T07:52:08.920Z,100985.33
2019-04-14T07:54:43.296Z,100986.20
2019-04-14T07:57:26.053Z,100987.73
2019-04-14T08:00:08.296Z,100980.84
2019-04-14T08:02:54.599Z,100985.47
2019-04-14T08:05:30.390Z,100982.37
2019-04-14T08:07:59.956Z,100986.55
2019-04-14T08:10:29.208Z,100987.09
2019-04-14T08:12:58.445Z,100986.92
2019-04-14T08:15:27.571Z,100988.80
2019-04-14T08:17:56.801Z,100989.80
2019-04-14T08:20:28.212Z,100987.47
2019-04-14T08:22:57.976Z,100989.58
2019-04-14T08:25:27.177Z,100986.90
2019-04-14T08:28:08.939Z,100987.48
2019-04-14T08:30:32.483Z,100987.17
2019-04-14T08:33:01.651Z,100983.09
2019-04-14T08:35:31.950Z,100987.72
2019-04-14T08:38:03.261Z,100984.22
2019-04-14T08:40:32.391Z,100982.37
2019-04-14T08:43:19.091Z,100987.44
2019-04-14T08:45:55.993Z,100986.77
2019-04-14T08:48:47.437Z,100983.16
2019-04-14T08:51:35.813Z,100987.99
2019-04-14T08:54:28.146Z,100989.19
2019-04-14T08:57:25.825Z,100988.84
2019-04-14T09:00:25.743Z,100991.48
2019-04-14T09:03:24.427Z,100991.34
2019-04-14T09:06:14.587Z,100990.66
2019-04-14T09:09:18.531Z,100989.75
2019-04-14T09:11:51.646Z,100994.50
2019-04-14T09:14:23.003Z,100982.72
2019-04-14T09:16:52.245Z,100984.39
2019-04-14T09:19:21.798Z,100984.83
2019-04-14T09:21:53.330Z,100986.73
2019-04-14T09:24:24.147Z,100986.07
2019-04-14T09:26:53.514Z,100991.00
2019-04-14T09:29:23.876Z,100990.94
2019-04-14T09:31:53.509Z,100989.12
2019-04-14T09:34:23.268Z,100991.59
2019-04-14T09:36:53.210Z,101000.72
2019-04-14T09:39:25.962Z,100989.40
2019-04-14T09:41:57.290Z,100997.81
2019-04-14T09:44:26.423Z,100991.95
2019-04-14T09:46:57.981Z,100998.82
2019-04-14T09:49:27.929Z,100996.94
2019-04-14T09:51:59.339Z,100999.93
2019-04-14T09:54:29.839Z,101005.56
2019-04-14T09:57:09.176Z,100999.36
2019-04-14T09:59:38.658Z,101001.05
2019-04-14T10:02:07.824Z,101002.41
2019-04-14T10:04:37.011Z,100994.17
2019-04-14T10:07:06.495Z,100994.03
2019-04-14T10:09:35.931Z,100987.38
2019-04-14T10:12:08.085Z,100994.20
2019-04-14T10:14:37.211Z,100993.80
2019-04-14T10:17:06.364Z,100997.60
2019-04-14T10:19:35.590Z,100995.80
2019-04-14T10:22:12.189Z,100993.26
2019-04-14T10:24:42.483Z,100995.48
2019-04-14T10:27:11.970Z,100991.94
2019-04-14T10:29:41.507Z,100995.22
2019-04-14T10:32:11.026Z,100993.55
2019-04-14T10:34:45.851Z,100990.53
2019-04-14T10:37:15.108Z,100992.69
2019-04-14T10:39:44.727Z,100998.48
2019-04-14T10:42:14.207Z,100993.48
2019-04-14T10:44:43.452Z,100997.59
2019-04-14T10:47:12.701Z,100997.62
2019-04-14T10:49:42.280Z,100992.14
2019-04-14T10:52:11.459Z,100986.46
2019-04-14T10:54:40.673Z,100989.84
2019-04-14T10:57:10.104Z,100989.31
2019-04-14T10:59:39.281Z,100987.83
2019-04-14T11:02:08.399Z,100988.69
2019-04-14T11:04:37.630Z,100988.46
2019-04-14T11:07:14.394Z,100982.06
2019-04-14T11:09:43.861Z,100982.35
2019-04-14T11:12:13.011Z,100981.83
2019-04-14T11:14:42.315Z,100973.97
2019-04-14T11:17:11.727Z,100973.55
2019-04-14T11:19:40.960Z,100966.84
2019-04-14T11:22:10.539Z,100963.82
2019-04-14T11:24:39.966Z,100966.84
2019-04-14T11:27:09.198Z,100958.33
2019-04-14T11:29:38.360Z,100959.77
2019-04-14T11:32:29.714Z,100959.84
2019-04-14T11:35:08.955Z,100956.83
2019-04-14T11:38:03.586Z,100956.48
2019-04-14T11:40:36.922Z,100955.91
2019-04-14T11:43:06.431Z,100956.75
2019-04-14T11:45:35.569Z,100953.61
2019-04-14T11:48:06.863Z,100956.97
2019-04-14T11:50:36.573Z,100950.64
2019-04-14T11:53:05.859Z,100953.20
2019-04-14T11:55:35.081Z,100953.09
2019-04-14T11:58:05.526Z,100957.88
2019-04-14T12:01:05.751Z,100947.98
2019-04-14T12:03:41.714Z,100947.57
2019-04-14T12:06:26.174Z,100950.59
2019-04-14T12:09:02.161Z,100948.31
2019-04-14T12:11:31.302Z,100953.62
2019-04-14T12:14:00.471Z,100949.35
2019-04-14T12:16:29.617Z,100957.03
2019-04-14T12:18:58.797Z,100951.00
2019-04-14T12:21:28.295Z,100957.91
2019-04-14T12:23:57.423Z,100958.66
2019-04-14T12:26:26.972Z,100957.58
2019-04-14T12:29:00.128Z,100957.98
2019-04-14T12:31:28.748Z,100957.03
2019-04-14T12:33:58.241Z,100950.14
2019-04-14T12:36:27.856Z,100954.72
2019-04-14T12:38:56.969Z,100955.69
2019-04-14T12:41:33.216Z,100959.58
2019-04-14T12:44:30.504Z,100958.31
2019-04-14T12:47:36.583Z,100954.56
2019-04-14T12:50:04.800Z,100962.09
2019-04-14T12:52:33.939Z,100959.08
2019-04-14T12:55:03.412Z,100956.54
2019-04-14T12:57:51.781Z,100949.89
2019-04-14T13:00:26.806Z,100953.91
2019-04-14T13:02:56.248Z,100943.48
2019-04-14T13:05:25.360Z,100937.91
2019-04-14T13:07:54.516Z,100936.42
2019-04-14T13:10:23.926Z,100944.88
2019-04-14T13:12:53.063Z,100938.45
2019-04-14T13:15:22.232Z,100931.42
2019-04-14T13:17:51.673Z,100938.93
2019-04-14T13:20:20.781Z,100942.94
2019-04-14T13:22:49.917Z,100939.34
2019-04-14T13:25:19.479Z,100937.70
2019-04-14T13:27:50.174Z,100937.92
2019-04-14T13:30:23.685Z,100937.67
2019-04-14T13:32:54.727Z,100946.52
2019-04-14T13:35:23.971Z,100935.47
2019-04-14T13:37:53.214Z,100933.54
2019-04-14T13:40:22.628Z,100920.76
2019-04-14T13:42:51.870Z,100918.12
2019-04-14T13:45:21.008Z,100918.37
2019-04-14T13:47:50.467Z,100919.28
2019-04-14T13:50:19.662Z,100921.31
2019-04-14T13:52:48.938Z,100923.56
2019-04-14T13:55:18.543Z,100921.84
2019-04-14T13:57:47.858Z,100925.69
2019-04-14T14:00:17.872Z,100921.58
2019-04-14T14:02:47.782Z,100922.55
2019-04-14T14:05:17.287Z,100923.59
2019-04-14T14:07:46.984Z,100922.64
2019-04-14T14:10:17.039Z,100932.20
2019-04-14T14:13:17.520Z,100936.04
2019-04-14T14:16:04.483Z,100936.55
2019-04-14T14:18:41.247Z,100936.84
2019-04-14T14:21:27.029Z,100934.38
2019-04-14T14:24:16.565Z,100925.80
2019-04-14T14:26:47.552Z,100926.88
2019-04-14T14:29:17.265Z,100930.19
2019-04-14T14:31:47.848Z,100922.55
2019-04-14T14:34:17.991Z,100922.25
2019-04-14T14:36:47.812Z,100930.19
2019-04-14T14:39:19.793Z,100919.48
2019-04-14T14:41:49.190Z,100923.62
2019-04-14T14:44:19.494Z,100923.83
2019-04-14T14:47:11.755Z,100918.28
2019-04-14T14:49:58.784Z,100914.45
2019-04-14T14:52:28.036Z,100910.16
2019-04-14T14:54:58.073Z,100919.70
2019-04-14T14:57:27.421Z,100918.16
2019-04-14T14:59:59.184Z,100912.28
2019-04-14T15:02:28.879Z,100916.41
2019-04-14T15:04:58.970Z,100914.53
2019-04-14T15:07:28.375Z,100915.75
2019-04-14T15:09:58.387Z,100913.27
2019-04-14T15:12:27.654Z,100916.25
2019-04-14T15:14:56.993Z,100917.58
2019-04-14T15:17:27.147Z,100906.76
2019-04-14T15:19:56.887Z,100910.53
2019-04-14T15:22:26.086Z,100906.30
2019-04-14T15:24:55.577Z,100906.38
2019-04-14T15:27:24.750Z,100904.02
2019-04-14T15:29:53.918Z,100900.78
2019-04-14T15:32:23.364Z,100906.84
2019-04-14T15:34:53.349Z,100904.11
2019-04-14T15:37:22.652Z,100906.03
2019-04-14T15:39:52.369Z,100913.25
2019-04-14T15:42:23.363Z,100917.94
2019-04-14T15:44:52.636Z,100920.51
2019-04-14T15:47:22.774Z,100919.86
2019-04-14T15:49:51.923Z,100919.26
2019-04-14T15:52:22.206Z,100918.13
2019-04-14T15:54:53.096Z,100919.95
2019-04-14T15:57:56.602Z,100922.08
2019-04-14T16:00:46.111Z,100921.22
2019-04-14T16:03:33.565Z,100936.65
2019-04-14T16:06:28.849Z,100936.81
2019-04-14T16:09:15.583Z,100937.94
2019-04-14T16:11:52.226Z,100955.37
2019-04-14T16:14:59.106Z,100953.52
2019-04-14T16:18:06.063Z,100956.71
2019-04-14T16:20:37.529Z,100955.55
2019-04-14T16:23:07.341Z,100963.22
2019-04-14T16:25:45.791Z,100968.73
2019-04-14T16:28:22.944Z,100969.70
2019-04-14T16:31:11.623Z,100979.37
2019-04-14T16:33:58.229Z,100982.48
2019-04-14T16:36:30.341Z,100995.02
2019-04-14T16:39:01.692Z,101006.63
2019-04-14T16:41:31.101Z,101013.24
2019-04-14T16:44:04.836Z,101016.20
2019-04-14T16:46:35.034Z,101024.11
2019-04-14T16:49:04.406Z,101027.27
2019-04-14T16:51:39.152Z,101036.66
2019-04-14T16:54:42.708Z,101034.82
2019-04-14T16:57:46.059Z,101036.30
2019-04-14T17:00:22.718Z,101045.76
2019-04-14T17:02:52.456Z,101045.67
2019-04-14T17:05:21.912Z,101055.64
2019-04-14T17:07:53.570Z,101054.39
2019-04-14T17:10:22.475Z,101057.78
2019-04-14T17:12:51.849Z,101063.52
2019-04-14T17:15:55.588Z,101068.05
2019-04-14T17:18:35.332Z,101077.06
2019-04-14T17:21:19.467Z,101073.12
2019-04-14T17:23:58.115Z,101080.30
2019-04-14T17:26:38.139Z,101084.66
2019-04-14T17:29:16.799Z,101082.56
2019-04-14T17:32:06.952Z,101094.53
2019-04-14T17:34:55.774Z,101097.27
2019-04-14T17:37:44.200Z,101096.20
2019-04-14T17:40:56.710Z,101110.30
2019-04-14T17:43:39.305Z,101117.33
2019-04-14T17:46:24.833Z,101121.43
2019-04-14T17:49:22.172Z,101125.44
2019-04-14T17:52:10.465Z,101136.57
2019-04-14T17:55:08.074Z,101142.30
2019-04-14T17:58:15.848Z,101156.63
2019-04-14T18:01:03.020Z,101155.27
2019-04-14T18:03:51.688Z,101157.66
2019-04-14T18:06:35.360Z,101165.63
2019-04-14T18:09:29.499Z,101175.61
2019-04-14T18:12:33.137Z,101175.69
2019-04-14T18:15:21.959Z,101187.83
2019-04-14T18:18:10.358Z,101187.84
2019-04-14T18:20:46.296Z,101183.63
2019-04-14T18:23:15.705Z,101185.13
2019-04-14T18:25:45.312Z,101195.98
2019-04-14T18:28:32.279Z,101195.95
2019-04-14T18:31:26.635Z,101194.69
2019-04-14T18:34:29.927Z,101201.91
2019-04-14T18:37:27.248Z,101197.51
2019-04-14T18:40:14.858Z,101215.15
2019-04-14T18:42:54.068Z,101217.75
2019-04-14T18:45:31.595Z,101223.27
2019-04-14T18:48:25.925Z,101220.27
2019-04-14T18:51:17.282Z,101228.91
2019-04-14T18:54:08.592Z,101230.90
2019-04-14T18:56:55.249Z,101240.28
2019-04-14T18:59:43.942Z,101248.17
2019-04-14T19:02:14.575Z,101244.23
2019-04-14T19:04:44.410Z,101245.50
2019-04-14T19:07:13.802Z,101247.87
2019-04-14T19:09:43.213Z,101256.17
2019-04-14T19:12:30.432Z,101252.80
2019-04-14T19:15:18.648Z,101255.06
2019-04-14T19:17:56.758Z,101258.88
2019-04-14T19:20:26.298Z,101264.89
2019-04-14T19:22:55.809Z,101263.69
2019-04-14T19:25:25.590Z,101268.03
2019-04-14T19:27:55.034Z,101271.02
2019-04-14T19:30:24.518Z,101272.22
2019-04-14T19:32:56.981Z,101274.56
2019-04-14T19:35:26.965Z,101272.43
2019-04-14T19:37:56.380Z,101275.27
2019-04-14T19:40:25.894Z,101273.60
2019-04-14T19:42:56.067Z,101280.58
2019-04-14T19:45:25.256Z,101279.89
2019-04-14T19:47:54.813Z,101286.05
2019-04-14T19:50:24.047Z,101278.20
2019-04-14T19:52:53.600Z,101292.33
2019-04-14T19:55:23.357Z,101288.84
2019-04-14T19:57:53.246Z,101301.11
2019-04-14T20:00:22.530Z,101295.17
2019-04-14T20:02:52.220Z,101307.62
2019-04-14T20:05:21.392Z,101313.10
2019-04-14T20:07:50.552Z,101311.23
2019-04-14T20:10:19.846Z,101319.30
2019-04-14T20:12:49.028Z,101321.10
2019-04-14T20:15:24.568Z,101326.58
2019-04-14T20:18:10.594Z,101325.09
2019-04-14T20:21:04.706Z,101331.55
2019-04-14T20:23:42.666Z,101328.02
2019-04-14T20:26:46.315Z,101337.30
2019-04-14T20:29:18.588Z,101335.09
2019-04-14T20:32:05.343Z,101336.69
2019-04-14T20:34:34.864Z,101347.00
2019-04-14T20:37:04.657Z,101340.95
2019-04-14T20:39:33.776Z,101343.29
2019-04-14T20:42:04.369Z,101343.09
2019-04-14T20:44:34.739Z,101344.67
2019-04-14T20:47:06.889Z,101349.64
2019-04-14T20:49:36.118Z,101356.60
2019-04-14T20:52:06.540Z,101357.77
2019-04-14T20:54:35.660Z,101356.39
2019-04-14T20:57:04.968Z,101358.15
2019-04-14T20:59:34.536Z,101357.12
2019-04-14T21:02:19.487Z,101365.34
2019-04-14T21:05:10.416Z,101358.95
2019-04-14T21:08:07.657Z,101361.24
2019-04-14T21:10:44.909Z,101357.23
2019-04-14T21:13:30.148Z,101363.20
2019-04-14T21:16:18.613Z,101362.48
2019-04-14T21:18:50.334Z,101365.32
2019-04-14T21:21:45.526Z,101370.05
2019-04-14T21:24:31.527Z,101367.34
2019-04-14T21:27:25.771Z,101369.55
2019-04-14T21:30:18.194Z,101374.30
2019-04-14T21:33:00.394Z,101379.06
2019-04-14T21:35:42.206Z,101373.34
2019-04-14T21:38:36.348Z,101375.61
2019-04-14T21:41:11.099Z,101388.76
2019-04-14T21:43:40.715Z,101385.34
2019-04-14T21:46:10.735Z,101395.92
2019-04-14T21:48:39.925Z,101389.08
2019-04-14T21:51:10.113Z,101393.97
2019-04-14T21:53:39.348Z,101394.58
2019-04-14T21:56:13.709Z,101395.05
2019-04-14T21:59:01.841Z,101394.27
2019-04-14T22:01:53.035Z,101400.16
2019-04-14T22:04:42.915Z,101395.44
2019-04-14T22:07:37.443Z,101394.89
2019-04-14T22:10:26.167Z,101394.00
2019-04-14T22:15:22.064Z,101389.47
2019-04-14T22:17:53.463Z,101391.89
2019-04-14T22:20:22.874Z,101390.64
2019-04-14T22:22:53.205Z,101387.82
2019-04-14T22:25:24.609Z,101387.45
2019-04-14T22:27:54.104Z,101394.19
2019-04-14T22:30:23.237Z,101389.13
2019-04-14T22:32:52.340Z,101389.94
2019-04-14T22:35:21.773Z,101393.11
2019-04-14T22:37:50.894Z,101393.48
2019-04-14T22:40:19.996Z,101394.17
2019-04-14T22:42:49.631Z,101396.17
2019-04-14T22:45:19.157Z,101401.98
2019-04-14T22:47:48.373Z,101396.89
2019-04-14T22:50:19.626Z,101397.69
2019-04-14T22:52:48.867Z,101390.77
2019-04-14T22:55:18.015Z,101393.56
2019-04-14T22:57:48.750Z,101386.78
2019-04-14T23:00:40.437Z,101379.03
2019-04-14T23:03:39.088Z,101385.20
2019-04-14T23:06:29.985Z,101387.84
2019-04-14T23:09:05.775Z,101389.71
2019-04-14T23:11:46.144Z,101390.94
2019-04-14T23:14:43.613Z,101388.02
2019-04-14T23:17:38.496Z,101385.31
2019-04-14T23:20:36.370Z,101393.85
2019-04-14T23:23:23.215Z,101397.63
2019-04-14T23:25:52.704Z,101400.61
2019-04-14T23:28:21.869Z,101395.20
2019-04-14T23:30:51.030Z,101401.44
2019-04-14T23:33:20.565Z,101399.30
2019-04-14T23:35:49.643Z,101404.38
2019-04-14T23:38:18.879Z,101399.30
2019-04-14T23:40:48.347Z,101401.76
2019-04-14T23:43:17.554Z,101400.81
2019-04-14T23:45:46.883Z,101405.84
2019-04-14T23:48:16.473Z,101399.45
2019-04-14T23:50:45.710Z,101399.43
2019-04-14T23:53:14.984Z,101391.39
2019-04-14T23:55:44.752Z,101396.02
2019-04-14T23:58:13.997Z,101394.05
